Time;durP1;ratioP1;P1;durP2;ratioP2;P2;SDS_P1;SDS_P2;PMS_P1;PMS_P2;Temp;Humidity;BMP_temperature;BMP_pressure;BME280_temperature;BME280_humidity;BME280_pressure;Samples;Min_cycle;Max_cycle;Signal;HPM_P1;HPM_P2
2021/11/15 00:00:16;;;;;;;2.72;2.53;;;;;;;-142.05;100.00;60077.44;5006896;28;20046;-26
2021/11/15 00:02:45;;;;;;;4.05;2.50;;;;;;;-142.05;100.00;60077.44;5008286;28;20043;-25
2021/11/15 00:05:12;;;;;;;3.47;2.10;;;;;;;-142.05;100.00;60077.44;5010106;28;20046;-27
2021/11/15 00:07:40;;;;;;;2.25;2.13;;;;;;;-142.05;100.00;60077.44;5012931;28;20038;-26
2021/11/15 00:10:08;;;;;;;3.70;2.95;;;;;;;-142.05;100.00;60077.44;5013207;28;20041;-26
2021/11/15 00:12:35;;;;;;;3.67;2.70;;;;;;;-142.05;100.00;60077.44;5013290;28;20049;-26
2021/11/15 00:15:03;;;;;;;4.70;2.42;;;;;;;-142.05;100.00;60077.44;5012799;28;20042;-26
2021/11/15 00:17:30;;;;;;;3.33;1.98;;;;;;;-142.05;100.00;60077.44;5013156;28;20034;-26
2021/11/15 00:19:57;;;;;;;4.28;1.70;;;;;;;-142.05;100.00;60077.44;5012502;28;20044;-26
2021/11/15 00:22:23;;;;;;;4.28;2.22;;;;;;;-142.05;100.00;60077.44;5012469;28;20045;-27
2021/11/15 00:24:50;;;;;;;16.48;3.70;;;;;;;-142.05;100.00;60077.44;5012503;28;20560;-26
2021/11/15 00:27:17;;;;;;;4.72;2.25;;;;;;;-142.05;100.00;60077.44;5012911;28;20045;-25
2021/11/15 00:29:44;;;;;;;2.97;2.28;;;;;;;-142.05;100.00;60077.44;5012732;28;20061;-26
2021/11/15 00:32:11;;;;;;;2.17;1.90;;;;;;;-142.05;100.00;60077.44;5013034;28;20041;-25
2021/11/15 00:34:38;;;;;;;9.45;2.92;;;;;;;-142.05;100.00;60077.44;5012923;28;20050;-26
2021/11/15 00:37:05;;;;;;;2.47;2.20;;;;;;;-142.05;100.00;60077.44;5012714;28;20041;-26
2021/11/15 00:39:32;;;;;;;2.97;2.35;;;;;;;-142.05;100.00;60077.44;5013098;28;20397;-26
2021/11/15 00:41:59;;;;;;;3.15;2.25;;;;;;;-142.05;100.00;60077.44;5012407;28;20484;-27
2021/11/15 00:44:26;;;;;;;3.90;2.80;;;;;;;-142.05;100.00;60077.44;5012798;28;20431;-26
2021/11/15 00:46:52;;;;;;;3.58;2.55;;;;;;;-142.05;100.00;60077.44;5012375;28;20100;-26
2021/11/15 00:49:19;;;;;;;4.25;2.38;;;;;;;-142.05;100.00;60077.44;5012683;28;20133;-25
2021/11/15 00:51:46;;;;;;;3.58;2.33;;;;;;;-142.05;100.00;60077.44;5011964;28;20050;-26
2021/11/15 00:54:13;;;;;;;3.42;2.30;;;;;;;-142.05;100.00;60077.44;5013057;28;20045;-26
2021/11/15 00:56:40;;;;;;;3.42;3.03;;;;;;;-142.05;100.00;60077.44;5013032;28;20038;-26
2021/11/15 00:59:07;;;;;;;6.30;2.38;;;;;;;-142.05;100.00;60077.44;5012772;28;20049;-26
2021/11/15 01:01:33;;;;;;;4.57;2.50;;;;;;;-142.05;100.00;60077.44;5012834;28;20156;-26
2021/11/15 01:04:01;;;;;;;3.40;3.10;;;;;;;-142.05;100.00;60077.44;5011979;28;20073;-26
2021/11/15 01:06:28;;;;;;;3.28;2.53;;;;;;;-142.05;100.00;60077.44;5012575;28;20455;-26
2021/11/15 01:08:55;;;;;;;2.10;1.90;;;;;;;-142.05;100.00;60077.44;5011944;28;20069;-26
2021/11/15 01:11:21;;;;;;;3.83;2.25;;;;;;;-142.05;100.00;60077.44;5015849;28;20503;-26
2021/11/15 01:13:48;;;;;;;2.53;2.10;;;;;;;-142.05;100.00;60077.44;5015730;28;20038;-26
2021/11/15 01:16:15;;;;;;;2.55;2.08;;;;;;;-142.05;100.00;60077.44;5016366;28;20061;-26
2021/11/15 01:18:43;;;;;;;2.47;2.25;;;;;;;-142.05;100.00;60077.44;5016165;28;20065;-25
2021/11/15 01:21:12;;;;;;;2.92;2.13;;;;;;;-142.05;100.00;60077.44;5015776;28;20042;-26
2021/11/15 01:23:39;;;;;;;3.38;2.05;;;;;;;-142.05;100.00;60077.44;5014492;28;20057;-26
2021/11/15 01:26:07;;;;;;;2.70;2.15;;;;;;;-142.05;100.00;60077.44;5016114;28;20042;-26
2021/11/15 01:28:35;;;;;;;3.00;2.10;;;;;;;-142.05;100.00;60077.44;5016251;28;20042;-26
2021/11/15 01:31:02;;;;;;;2.80;2.40;;;;;;;-142.05;100.00;60077.44;5015901;28;20037;-25
2021/11/15 01:33:29;;;;;;;3.00;2.50;;;;;;;-142.05;100.00;60077.44;5016090;28;20096;-25
2021/11/15 01:35:56;;;;;;;5.03;2.60;;;;;;;-142.05;100.00;60077.44;5015432;28;20524;-25
2021/11/15 01:38:23;;;;;;;2.88;2.20;;;;;;;-142.05;100.00;60077.44;5015729;28;20100;-25
2021/11/15 01:40:50;;;;;;;2.80;2.40;;;;;;;-142.05;100.00;60077.44;5015753;28;20054;-26
2021/11/15 01:43:17;;;;;;;2.67;1.90;;;;;;;-142.05;100.00;60077.44;5015424;28;20046;-25
2021/11/15 01:45:44;;;;;;;2.08;1.88;;;;;;;-142.05;100.00;60077.44;5015463;28;20050;-25
2021/11/15 01:48:13;;;;;;;3.00;2.35;;;;;;;-142.05;100.00;60077.44;5015302;28;20401;-25
2021/11/15 01:50:41;;;;;;;5.53;2.55;;;;;;;-142.05;100.00;60077.44;5015615;28;20074;-25
2021/11/15 01:53:10;;;;;;;3.88;2.10;;;;;;;-142.05;100.00;60077.44;5015417;28;20046;-24
2021/11/15 01:55:39;;;;;;;2.17;1.98;;;;;;;-142.05;100.00;60077.44;5015730;28;20069;-24
2021/11/15 01:58:09;;;;;;;3.05;2.45;;;;;;;-142.05;100.00;60077.44;5015223;28;20046;-25
2021/11/15 02:00:54;;;;;;;2.75;2.08;;;;;;;-142.05;100.00;60077.44;5015520;28;20092;-25
2021/11/15 02:03:22;;;;;;;3.03;2.47;;;;;;;-142.05;100.00;60077.44;5015279;28;20042;-25
2021/11/15 02:05:49;;;;;;;2.20;2.00;;;;;;;-142.05;100.00;60077.44;5015209;28;20045;-25
2021/11/15 02:08:17;;;;;;;4.53;1.77;;;;;;;-142.05;100.00;60077.44;5015093;28;20037;-25
2021/11/15 02:10:45;;;;;;;2.47;2.28;;;;;;;-142.05;100.00;60077.44;5015163;28;20049;-25
2021/11/15 02:13:14;;;;;;;2.17;1.85;;;;;;;-142.05;100.00;60077.44;5015333;28;20411;-25
2021/11/15 02:15:41;;;;;;;3.10;2.30;;;;;;;-142.05;100.00;60077.44;5015102;28;20038;-25
2021/11/15 02:18:08;;;;;;;3.42;2.63;;;;;;;-142.05;100.00;60077.44;5015096;28;20566;-25
2021/11/15 02:20:53;;;;;;;3.72;2.90;;;;;;;-142.05;100.00;60077.44;5014592;28;20046;-25
2021/11/15 02:23:23;;;;;;;3.67;2.58;;;;;;;-142.05;100.00;60077.44;5014891;28;20060;-25
2021/11/15 02:25:53;;;;;;;2.63;2.25;;;;;;;-142.05;100.00;60077.44;5014587;28;20076;-26
2021/11/15 02:28:28;;;;;;;2.53;2.33;;;;;;;-142.05;100.00;60077.44;5014687;28;20054;-25
2021/11/15 02:30:56;;;;;;;2.03;1.90;;;;;;;-142.05;100.00;60077.44;5014915;28;20038;-26
2021/11/15 02:33:23;;;;;;;4.13;1.95;;;;;;;-142.05;100.00;60077.44;5014871;28;20438;-25
2021/11/15 02:35:50;;;;;;;2.30;2.10;;;;;;;-142.05;100.00;60077.44;5014690;28;20052;-25
2021/11/15 02:38:16;;;;;;;3.35;2.22;;;;;;;-142.05;100.00;60077.44;5014683;28;20042;-25
2021/11/15 02:40:43;;;;;;;2.30;2.13;;;;;;;-142.05;100.00;60077.44;5014654;28;20046;-25
2021/11/15 02:43:10;;;;;;;3.03;1.95;;;;;;;-142.05;100.00;60077.44;5013751;28;20068;-25
2021/11/15 02:45:37;;;;;;;2.17;1.85;;;;;;;-142.05;100.00;60077.44;5014460;28;20057;-25
2021/11/15 02:48:05;;;;;;;5.35;2.30;;;;;;;-142.05;100.00;60077.44;5014169;28;20046;-26
2021/11/15 02:50:33;;;;;;;6.43;2.70;;;;;;;-142.05;100.00;60077.44;5014378;28;20042;-25
2021/11/15 02:53:07;;;;;;;2.60;2.40;;;;;;;-142.05;100.00;60077.44;5014201;28;20416;-25
2021/11/15 02:55:34;;;;;;;3.80;2.03;;;;;;;-142.05;100.00;60077.44;5014224;28;20480;-25
2021/11/15 02:58:04;;;;;;;2.00;1.90;;;;;;;-142.05;100.00;60077.44;5014251;28;20042;-25
2021/11/15 03:00:52;;;;;;;2.63;2.42;;;;;;;-142.05;100.00;60077.44;5013875;28;20394;-25
2021/11/15 03:03:19;;;;;;;3.13;2.08;;;;;;;-142.05;100.00;60077.44;4995017;28;20117;-20
2021/11/15 03:05:50;;;;;;;2.47;2.13;;;;;;;-142.05;100.00;60077.44;4995356;28;20046;-25
2021/11/15 03:08:19;;;;;;;2.55;2.35;;;;;;;-142.05;100.00;60077.44;5014111;28;20466;-24
2021/11/15 03:10:48;;;;;;;2.65;2.17;;;;;;;-142.05;100.00;60077.44;5014130;28;20041;-25
2021/11/15 03:13:17;;;;;;;2.17;1.98;;;;;;;-142.05;100.00;60077.44;5014477;28;20053;-25
2021/11/15 03:15:50;;;;;;;2.28;2.08;;;;;;;-142.05;100.00;60077.44;5013982;28;20044;-25
2021/11/15 03:18:26;;;;;;;2.03;1.83;;;;;;;-142.05;100.00;60077.44;5014444;28;20088;-24
2021/11/15 03:20:56;;;;;;;2.15;1.98;;;;;;;-142.05;100.00;60077.44;5013898;28;20053;-24
2021/11/15 03:23:26;;;;;;;3.22;2.10;;;;;;;-142.05;100.00;60077.44;5010104;28;20050;-25
2021/11/15 03:25:55;;;;;;;2.08;1.88;;;;;;;-142.05;100.00;60077.44;5013931;28;20052;-21
2021/11/15 03:28:26;;;;;;;3.63;1.88;;;;;;;-142.05;100.00;60077.44;5013834;28;20092;-25
2021/11/15 03:30:57;;;;;;;2.25;2.10;;;;;;;-142.05;100.00;60077.44;5013666;28;20045;-25
2021/11/15 03:33:26;;;;;;;2.60;2.00;;;;;;;-142.05;100.00;60077.44;5012828;28;20049;-25
2021/11/15 03:35:53;;;;;;;2.67;2.10;;;;;;;-142.05;100.00;60077.44;5013833;28;20125;-25
2021/11/15 03:38:20;;;;;;;1.98;1.80;;;;;;;-142.05;100.00;60077.44;5013300;28;20129;-25
2021/11/15 03:40:47;;;;;;;1.90;1.80;;;;;;;-142.05;100.00;60077.44;5003696;28;20080;-26
2021/11/15 03:43:14;;;;;;;2.38;2.17;;;;;;;-142.05;100.00;60077.44;5013573;28;20100;-25
2021/11/15 03:45:41;;;;;;;1.70;1.60;;;;;;;-142.05;100.00;60077.44;5013250;28;20503;-25
2021/11/15 03:48:10;;;;;;;2.83;2.20;;;;;;;-142.05;100.00;60077.44;5013252;28;20046;-26
2021/11/15 03:50:38;;;;;;;2.67;2.47;;;;;;;-142.05;100.00;60077.44;5013707;28;20108;-25
2021/11/15 03:53:08;;;;;;;2.50;2.10;;;;;;;-142.05;100.00;60077.44;5013466;28;20042;-26
2021/11/15 03:55:35;;;;;;;2.75;2.55;;;;;;;-142.05;100.00;60077.44;5013338;28;20052;-25
2021/11/15 03:58:02;;;;;;;1.63;1.52;;;;;;;-142.05;100.00;60077.44;5013326;28;20092;-25
2021/11/15 04:00:36;;;;;;;1.80;1.70;;;;;;;-142.05;100.00;60077.44;5012915;28;20404;-25
2021/11/15 04:03:09;;;;;;;2.75;2.05;;;;;;;-142.05;100.00;60077.44;5041239;22;20052;-24
2021/11/15 04:05:38;;;;;;;2.28;2.08;;;;;;;-142.05;100.00;60077.44;5032501;28;20377;-23
2021/11/15 04:08:06;;;;;;;2.15;1.83;;;;;;;-142.05;100.00;60077.44;5033190;28;20087;-24
2021/11/15 04:10:38;;;;;;;3.72;2.00;;;;;;;-142.05;100.00;60077.44;5032353;28;20052;-23
2021/11/15 04:13:11;;;;;;;2.83;1.98;;;;;;;-142.05;100.00;60077.44;5032679;28;20038;-24
2021/11/15 04:15:38;;;;;;;3.25;2.40;;;;;;;-142.05;100.00;60077.44;5032456;28;20530;-23
2021/11/15 04:18:07;;;;;;;2.08;1.88;;;;;;;-142.05;100.00;60077.44;5032783;28;20042;-23
2021/11/15 04:20:33;;;;;;;2.10;1.90;;;;;;;-142.05;100.00;60077.44;5032628;28;20492;-21
2021/11/15 04:23:00;;;;;;;2.83;1.90;;;;;;;-142.05;100.00;60077.44;5032194;28;20041;-22
2021/11/15 04:25:27;;;;;;;2.03;1.90;;;;;;;-142.05;100.00;60077.44;5032733;28;20132;-24
2021/11/15 04:27:54;;;;;;;1.90;1.60;;;;;;;-142.05;100.00;60077.44;5032250;28;20045;-24
2021/11/15 04:30:21;;;;;;;2.42;1.90;;;;;;;-142.05;100.00;60077.44;5032477;28;20510;-23
2021/11/15 04:32:49;;;;;;;4.05;2.20;;;;;;;-142.05;100.00;60077.44;5032182;28;20046;-23
2021/11/15 04:35:18;;;;;;;2.15;1.95;;;;;;;-142.05;100.00;60077.44;5032500;28;20053;-23
2021/11/15 04:37:46;;;;;;;2.38;2.15;;;;;;;-142.05;100.00;60077.44;5032009;28;20091;-24
2021/11/15 04:40:13;;;;;;;2.00;1.90;;;;;;;-142.05;100.00;60077.44;5032425;28;20046;-24
2021/11/15 04:42:40;;;;;;;1.88;1.73;;;;;;;-142.05;100.00;60077.44;5032667;28;20049;-23
2021/11/15 04:45:07;;;;;;;1.80;1.70;;;;;;;-142.05;100.00;60077.44;5033556;28;20073;-21
2021/11/15 04:47:34;;;;;;;3.25;1.92;;;;;;;-142.05;100.00;60077.44;5036570;28;20488;-23
2021/11/15 04:50:03;;;;;;;1.80;1.70;;;;;;;-142.05;100.00;60077.44;5036193;28;20046;-22
2021/11/15 04:52:30;;;;;;;2.40;2.00;;;;;;;-142.05;100.00;60077.44;5036205;28;20053;-23
2021/11/15 04:54:57;;;;;;;2.47;1.73;;;;;;;-142.05;100.00;60077.44;5036068;28;20415;-23
2021/11/15 04:57:25;;;;;;;2.33;2.08;;;;;;;-142.05;100.00;60077.44;5036495;28;20554;-23
2021/11/15 04:59:51;;;;;;;2.95;1.75;;;;;;;-142.05;100.00;60077.44;5036046;28;20054;-22
2021/11/15 05:02:19;;;;;;;2.28;1.95;;;;;;;-142.05;100.00;60077.44;5036114;28;20049;-23
2021/11/15 05:04:46;;;;;;;1.70;1.60;;;;;;;-142.05;100.00;60077.44;5036011;28;20045;-23
2021/11/15 05:07:13;;;;;;;2.10;1.90;;;;;;;-142.05;100.00;60077.44;5035945;28;20088;-23
2021/11/15 05:09:40;;;;;;;1.70;1.60;;;;;;;-142.05;100.00;60077.44;5036198;28;20046;-23
2021/11/15 05:12:12;;;;;;;2.70;1.85;;;;;;;-142.05;100.00;60077.44;5035640;28;20132;-23
2021/11/15 05:14:38;;;;;;;1.95;1.83;;;;;;;-142.05;100.00;60077.44;5036024;28;20046;-23
2021/11/15 05:17:05;;;;;;;3.95;1.95;;;;;;;-142.05;100.00;60077.44;5035419;28;20046;-23
2021/11/15 05:19:32;;;;;;;1.80;1.45;;;;;;;-142.05;100.00;60077.44;5035750;28;20045;-23
2021/11/15 05:21:59;;;;;;;2.00;1.80;;;;;;;-142.05;100.00;60077.44;5035221;28;20744;-24
2021/11/15 05:24:25;;;;;;;1.60;1.50;;;;;;;-142.05;100.00;60077.44;5036040;28;20049;-23
2021/11/15 05:26:52;;;;;;;2.53;2.00;;;;;;;-142.05;100.00;60077.44;5035748;28;20179;-23
2021/11/15 05:29:19;;;;;;;1.48;1.38;;;;;;;-142.05;100.00;60077.44;5035478;28;20498;-23
2021/11/15 05:31:46;;;;;;;2.65;2.13;;;;;;;-142.05;100.00;60077.44;5035917;28;20486;-23
2021/11/15 05:34:13;;;;;;;1.45;1.35;;;;;;;-142.05;100.00;60077.44;5034990;28;20492;-23
2021/11/15 05:36:40;;;;;;;1.52;1.42;;;;;;;-142.05;100.00;60077.44;5035343;28;20435;-23
2021/11/15 05:39:07;;;;;;;1.40;1.30;;;;;;;-142.05;100.00;60077.44;5035215;28;20048;-23
2021/11/15 05:41:34;;;;;;;3.92;2.80;;;;;;;-142.05;100.00;60077.44;5035443;28;20030;-23
2021/11/15 05:44:01;;;;;;;2.55;2.10;;;;;;;-142.05;100.00;60077.44;5035123;28;20046;-23
2021/11/15 05:46:30;;;;;;;1.80;1.58;;;;;;;-142.05;100.00;60077.44;5035462;28;20040;-24
2021/11/15 05:48:58;;;;;;;2.00;1.90;;;;;;;-142.05;100.00;60077.44;5035458;28;20103;-24
2021/11/15 05:51:25;;;;;;;2.13;1.90;;;;;;;-142.05;100.00;60077.44;5035033;28;20487;-23
2021/11/15 05:53:51;;;;;;;1.85;1.65;;;;;;;-142.05;100.00;60077.44;5035065;28;20043;-24
2021/11/15 05:56:18;;;;;;;2.50;1.90;;;;;;;-142.05;100.00;60077.44;5034383;28;20056;-24
2021/11/15 05:58:45;;;;;;;2.65;2.15;;;;;;;-142.05;100.00;60077.44;5035112;28;20046;-23
2021/11/15 06:01:12;;;;;;;1.77;1.67;;;;;;;-142.05;100.00;60077.44;5034434;28;20037;-23
2021/11/15 06:03:43;;;;;;;2.78;1.60;;;;;;;-142.05;100.00;60077.44;5034915;28;20045;-44
2021/11/15 06:07:45;;;;;;;6.20;5.60;;;;;;;36.38;21.88;100005.38;5110275;27;20417;-52
2021/11/15 06:10:12;;;;;;;7.10;6.38;;;;;;;35.90;23.07;100005.00;5049344;28;20090;-50
2021/11/15 06:12:39;;;;;;;9.43;7.10;;;;;;;36.22;21.76;100020.66;5041594;28;20041;-50
2021/11/15 06:15:08;;;;;;;8.27;7.47;;;;;;;36.05;23.03;100022.59;5045087;28;20510;-52
2021/11/15 06:17:37;;;;;;;13.20;9.18;;;;;;;35.73;23.57;100012.31;5047020;28;20077;-50
2021/11/15 06:20:06;;;;;;;9.43;7.72;;;;;;;30.55;30.07;100020.56;5042944;28;20045;-52
2021/11/15 06:22:33;;;;;;;11.57;8.13;;;;;;;35.04;24.24;100034.16;5043859;28;20372;-54
2021/11/15 06:25:00;;;;;;;11.10;9.48;;;;;;;36.64;22.37;100025.56;5046372;28;20041;-55
2021/11/15 06:27:26;;;;;;;12.15;7.68;;;;;;;37.57;21.41;100033.63;5045639;28;20053;-53
2021/11/15 06:29:53;;;;;;;11.48;9.27;;;;;;;35.42;23.77;100025.38;5044336;28;21041;-58
2021/11/15 06:32:20;;;;;;;13.70;10.68;;;;;;;35.72;23.94;100029.66;5045970;28;20052;-57
2021/11/15 06:34:47;;;;;;;16.75;9.65;;;;;;;35.99;23.59;100031.72;5043767;28;20103;-58
2021/11/15 06:37:14;;;;;;;9.30;7.05;;;;;;;37.34;21.64;100035.59;5047327;28;20048;-57
2021/11/15 06:39:41;;;;;;;9.32;7.90;;;;;;;36.01;22.85;100035.00;5041391;28;20038;-54
2021/11/15 06:42:08;;;;;;;10.38;8.25;;;;;;;36.63;22.61;100035.59;5043306;28;20124;-50
2021/11/15 06:44:34;;;;;;;11.13;9.32;;;;;;;36.81;22.51;100048.06;5040057;28;20116;-51
2021/11/15 06:47:02;;;;;;;13.68;10.02;;;;;;;36.25;23.12;100038.34;5044683;28;20099;-54
2021/11/15 06:49:28;;;;;;;9.60;8.27;;;;;;;36.69;22.67;100055.50;5042868;28;20045;-55
2021/11/15 06:51:55;;;;;;;16.75;11.98;;;;;;;39.56;20.09;100052.50;5045250;28;20554;-56
2021/11/15 06:54:22;;;;;;;13.38;10.38;;;;;;;33.96;25.64;100053.75;5044838;28;20439;-55
2021/11/15 06:56:49;;;;;;;14.05;10.93;;;;;;;31.79;29.05;100063.16;5044543;28;20545;-49
2021/11/15 06:59:19;;;;;;;13.18;9.63;;;;;;;30.48;31.62;100078.94;5046971;28;20037;-56
2021/11/15 07:01:46;;;;;;;17.45;11.27;;;;;;;33.34;28.10;100076.47;5039895;28;20041;-52
2021/11/15 07:04:13;;;;;;;17.02;11.50;;;;;;;34.13;27.03;100084.44;5045756;28;20041;-57
2021/11/15 07:06:43;;;;;;;16.83;13.50;;;;;;;35.47;24.67;100097.81;5045682;28;20049;-56
2021/11/15 07:09:10;;;;;;;14.27;11.05;;;;;;;35.02;25.23;100097.78;5045115;28;20045;-58
2021/11/15 07:11:38;;;;;;;15.18;11.30;;;;;;;31.86;28.90;100097.38;5045221;28;20041;-57
2021/11/15 07:14:05;;;;;;;12.55;9.38;;;;;;;32.64;28.11;100104.97;5045449;28;20056;-55
2021/11/15 07:16:32;;;;;;;14.20;10.35;;;;;;;33.08;27.47;100101.16;5048413;28;20033;-53
2021/11/15 07:18:59;;;;;;;12.00;10.00;;;;;;;33.92;26.58;100102.00;5035425;28;20100;-57
2021/11/15 07:21:26;;;;;;;9.90;8.93;;;;;;;35.14;25.04;100106.66;5033897;28;20042;-56
2021/11/15 07:23:53;;;;;;;15.98;10.88;;;;;;;33.07;27.48;100099.50;5032731;28;20060;-58
2021/11/15 07:26:23;;;;;;;14.75;11.43;;;;;;;33.45;26.39;100101.94;5034914;28;20439;-53
2021/11/15 07:28:51;;;;;;;10.43;6.93;;;;;;;37.47;29.06;100100.44;5033903;28;20042;-68
2021/11/15 07:35:11;;;;;;;17.13;8.45;;;;;;;18.23;88.62;100113.53;5047384;27;20406;-13
2021/11/15 07:37:37;;;;;;;9.63;6.07;;;;;;;18.49;86.77;100126.34;5048659;28;20045;-14
2021/11/15 07:40:08;;;;;;;5.82;4.85;;;;;;;18.68;85.73;100131.75;5029725;28;20091;-16
2021/11/15 07:42:35;;;;;;;49.15;10.75;;;;;;;12.00;100.00;100313.31;5027678;28;20070;-20
2021/11/15 07:45:04;;;;;;;5.90;4.60;;;;;;;17.45;100.00;100696.22;5026658;28;20053;-21
2021/11/15 07:47:33;;;;;;;11.25;6.05;;;;;;;18.92;88.79;99933.34;5027158;28;20056;-23
2021/11/15 07:50:00;;;;;;;7.82;5.15;;;;;;;19.28;84.21;99844.63;5022721;28;20042;-20
2021/11/15 07:52:27;;;;;;;6.80;5.47;;;;;;;19.43;81.18;99878.53;5026982;28;20045;-21
2021/11/15 07:54:54;;;;;;;7.60;5.30;;;;;;;19.54;80.52;99934.69;5027515;28;20042;-20
2021/11/15 07:57:21;;;;;;;5.97;4.97;;;;;;;19.65;79.55;99968.13;5028122;28;20064;-20
2021/11/15 07:59:47;;;;;;;10.73;5.00;;;;;;;19.76;78.24;100002.38;5024631;28;20045;-19
2021/11/15 08:02:15;;;;;;;8.30;5.38;;;;;;;19.84;77.74;100034.22;5026593;28;20044;-20
2021/11/15 08:04:42;;;;;;;6.38;4.78;;;;;;;19.91;76.89;100060.09;5028220;28;20045;-20
2021/11/15 08:07:09;;;;;;;7.85;5.40;;;;;;;19.98;75.89;100092.97;5028368;28;20073;-20
2021/11/15 08:09:37;;;;;;;8.40;5.65;;;;;;;20.03;75.64;100098.69;5027449;28;20095;-21
2021/11/15 08:12:06;;;;;;;9.48;6.00;;;;;;;20.06;75.51;100106.31;5027746;28;20503;-21
2021/11/15 08:14:41;;;;;;;9.27;5.55;;;;;;;20.09;75.19;100121.94;5027929;28;20058;-20
2021/11/15 08:17:10;;;;;;;;;;;;;;;20.13;74.82;100125.94;5020459;28;20049;-20
2021/11/15 08:19:37;;;;;;;10.27;6.55;;;;;;;20.17;74.07;100139.72;5026039;28;20506;-19
2021/11/15 08:22:04;;;;;;;9.73;5.70;;;;;;;20.16;73.83;100136.25;5027491;28;20042;-20
2021/11/15 08:24:37;;;;;;;11.50;7.20;;;;;;;20.14;72.77;100147.00;5027155;28;20570;-19
2021/11/15 08:27:08;;;;;;;8.75;7.35;;;;;;;20.25;73.14;100150.47;5026555;28;20152;-19
2021/11/15 08:29:35;;;;;;;9.48;6.72;;;;;;;20.24;73.11;100160.22;5029003;28;20038;-20
2021/11/15 08:32:06;;;;;;;8.15;6.38;;;;;;;20.27;73.19;100159.91;5026630;28;20041;-19
2021/11/15 08:34:34;;;;;;;11.80;8.52;;;;;;;20.21;70.61;100155.19;5026897;28;20126;-20
2021/11/15 08:37:05;;;;;;;14.30;7.40;;;;;;;20.22;70.45;100174.56;5027475;28;20045;-19
2021/11/15 08:39:34;;;;;;;9.70;6.60;;;;;;;20.22;71.27;100162.16;5025681;28;20428;-20
2021/11/15 08:42:04;;;;;;;10.70;7.82;;;;;;;20.15;70.55;100174.28;5014446;28;20046;-21
2021/11/15 08:44:33;;;;;;;9.50;8.32;;;;;;;20.15;71.53;100182.22;5016715;28;20042;-20
2021/11/15 08:47:00;;;;;;;9.57;7.15;;;;;;;20.15;70.29;100161.88;4995527;28;20541;-19
2021/11/15 08:49:30;;;;;;;12.45;8.32;;;;;;;20.16;70.04;100173.31;4995365;28;20386;-19
2021/11/15 08:51:57;;;;;;;12.77;7.80;;;;;;;20.17;70.46;100182.91;4997312;28;20510;-19
2021/11/15 08:54:25;;;;;;;14.27;7.60;;;;;;;20.14;70.14;100180.56;4998599;28;20060;-18
2021/11/15 08:56:58;;;;;;;10.07;8.73;;;;;;;20.15;70.55;100176.94;4999660;28;20054;-19
2021/11/15 08:59:38;;;;;;;9.68;8.43;;;;;;;20.10;70.06;100176.50;4994566;28;20411;-19
2021/11/15 09:02:05;;;;;;;13.95;8.25;;;;;;;20.16;70.00;100183.88;4998936;28;20042;-20
2021/11/15 09:04:33;;;;;;;10.73;8.15;;;;;;;20.17;69.80;100176.78;4998265;28;20052;-19
2021/11/15 09:06:59;;;;;;;10.85;8.00;;;;;;;20.17;70.12;100174.13;5004487;28;20496;-19
2021/11/15 09:09:28;;;;;;;12.90;9.02;;;;;;;20.25;70.69;100177.75;4993728;28;20034;-18
2021/11/15 09:11:58;;;;;;;10.82;8.13;;;;;;;20.24;69.49;100184.03;4998789;28;20045;-18
2021/11/15 09:14:25;;;;;;;11.10;7.88;;;;;;;20.20;69.16;100190.59;4999036;28;20061;-18
2021/11/15 09:16:53;;;;;;;11.93;7.80;;;;;;;20.31;70.74;100185.13;4998812;28;20030;-19
2021/11/15 09:19:21;;;;;;;10.52;7.78;;;;;;;20.35;70.31;100183.88;4998140;28;20041;-19
2021/11/15 09:21:48;;;;;;;12.38;9.60;;;;;;;20.39;70.21;100193.19;4999928;28;20056;-19
2021/11/15 09:24:16;;;;;;;12.15;8.23;;;;;;;20.47;70.34;100186.41;5000835;28;20090;-19
2021/11/15 09:26:46;;;;;;;10.38;7.40;;;;;;;20.54;70.30;100187.50;4996598;28;20056;-19
2021/11/15 09:29:14;;;;;;;10.27;7.20;;;;;;;20.57;70.54;100198.66;5000246;28;20052;-18
2021/11/15 09:31:41;;;;;;;13.80;8.57;;;;;;;20.54;70.63;100193.63;4994917;28;20038;-20
2021/11/15 09:34:08;;;;;;;15.77;7.28;;;;;;;20.56;70.83;100196.13;5001118;28;20057;-19
2021/11/15 09:36:36;;;;;;;21.45;7.63;;;;;;;20.56;71.03;100198.78;5017943;28;20073;-20
2021/11/15 09:39:06;;;;;;;13.77;7.40;;;;;;;20.52;71.10;100197.41;4995458;28;20038;-19
2021/11/15 09:41:34;;;;;;;10.32;7.97;;;;;;;20.58;70.99;100195.03;4996545;28;20081;-21
2021/11/15 09:44:01;;;;;;;8.52;7.20;;;;;;;20.57;71.51;100201.31;4996072;28;20398;-21
2021/11/15 09:46:31;;;;;;;14.18;7.43;;;;;;;20.62;71.50;100195.59;5002525;28;20132;-21
2021/11/15 09:49:04;;;;;;;12.75;9.20;;;;;;;20.59;71.78;100193.22;5018015;28;20045;-22
2021/11/15 09:51:33;;;;;;;14.55;7.80;;;;;;;20.62;71.90;100195.59;4997209;28;20049;-20
2021/11/15 09:54:02;;;;;;;28.58;8.18;;;;;;;20.54;72.03;100198.09;4994988;28;20531;-20
2021/11/15 09:56:30;;;;;;;14.75;7.03;;;;;;;20.52;72.17;100210.66;4996549;28;20136;-20
2021/11/15 09:58:57;;;;;;;13.40;7.07;;;;;;;20.60;71.98;100202.81;5010302;28;20061;-20
2021/11/15 10:01:25;;;;;;;12.50;7.80;;;;;;;20.59;72.14;100209.09;4996662;28;20484;-20
2021/11/15 10:03:53;;;;;;;13.70;6.93;;;;;;;20.64;72.28;100199.75;4994740;28;20042;-21
2021/11/15 10:06:22;;;;;;;10.35;8.07;;;;;;;20.63;72.42;100211.31;4995523;28;20485;-20
2021/11/15 10:08:53;;;;;;;11.77;7.53;;;;;;;20.63;72.54;100207.84;4997791;28;20481;-19
2021/11/15 10:11:22;;;;;;;12.38;8.75;;;;;;;20.65;72.56;100212.00;5002639;28;20054;-20
2021/11/15 10:13:51;;;;;;;9.40;6.95;;;;;;;20.64;72.77;100222.75;5006837;28;20038;-21
2021/11/15 10:16:22;;;;;;;18.70;8.98;;;;;;;20.56;71.42;100217.31;4998334;28;20433;-23
2021/11/15 10:18:58;;;;;;;15.85;7.82;;;;;;;20.48;72.33;100215.38;5001771;28;20039;-24
2021/11/15 10:21:41;;;;;;;11.95;6.93;;;;;;;20.47;72.80;100208.44;5016632;28;20041;-23
2021/11/15 10:24:13;;;;;;;11.35;7.38;;;;;;;20.45;73.96;100214.78;4997970;28;20100;-22
2021/11/15 10:26:55;;;;;;;10.57;7.63;;;;;;;20.44;73.87;100215.78;4996165;28;20069;-22
2021/11/15 10:29:36;;;;;;;8.82;7.20;;;;;;;20.35;74.14;100210.38;4994865;28;20047;-22
2021/11/15 10:32:11;;;;;;;19.35;8.25;;;;;;;20.37;74.41;100216.34;4995351;28;20105;-24
2021/11/15 10:34:48;;;;;;;12.85;7.55;;;;;;;20.45;73.86;100201.56;4994423;28;20050;-17
2021/11/15 10:37:26;;;;;;;7.93;5.90;;;;;;;20.49;73.94;100209.13;4995510;28;20030;-18
2021/11/15 10:40:11;;;;;;;19.90;7.53;;;;;;;20.50;73.50;100210.78;4996020;28;20038;-18
2021/11/15 10:42:48;;;;;;;9.25;6.90;;;;;;;20.46;73.60;100205.91;5006483;28;20087;-19
2021/11/15 10:45:18;;;;;;;11.95;6.93;;;;;;;20.46;73.48;100205.91;5008428;28;20105;-18
2021/11/15 10:47:50;;;;;;;10.27;7.90;;;;;;;20.41;73.91;100206.31;5002241;28;20057;-20
2021/11/15 10:50:28;;;;;;;11.13;6.63;;;;;;;20.41;73.94;100214.25;5009165;28;20393;-21
2021/11/15 10:53:09;;;;;;;14.70;6.95;;;;;;;20.44;73.94;100211.31;5009374;28;20104;-21
2021/11/15 10:55:48;;;;;;;8.73;6.40;;;;;;;20.44;73.67;100215.78;5009810;28;20086;-19
2021/11/15 10:58:18;;;;;;;18.95;6.55;;;;;;;12.37;100.00;101106.03;4997157;28;20050;-16
2021/11/15 11:00:58;;;;;;;9.38;6.28;;;;;;;18.98;99.26;100749.06;4994170;28;20042;-17
2021/11/15 11:09:33;;;;;;;12.75;7.82;;;;;;;20.49;75.45;99872.84;5052731;27;20493;-19
2021/11/15 11:12:08;;;;;;;7.35;6.63;;;;;;;20.36;75.34;99957.06;5050558;28;20167;-18
2021/11/15 11:14:35;;;;;;;8.63;7.30;;;;;;;20.45;74.50;100018.88;5048145;28;20107;-20
2021/11/15 11:17:05;;;;;;;12.10;6.80;;;;;;;20.45;75.19;100059.41;5047872;28;20041;-19
2021/11/15 11:19:35;;;;;;;7.20;6.32;;;;;;;20.53;75.68;100103.75;5046103;28;20647;-18
2021/11/15 11:25:09;;;;;;;15.70;9.85;;;;;;;20.50;74.06;100147.22;5049697;28;20037;-18
2021/11/15 11:27:36;;;;;;;12.82;11.23;;;;;;;20.44;72.40;100171.59;5046721;28;20063;-18
2021/11/15 11:30:06;;;;;;;23.30;11.35;;;;;;;20.29;72.15;100175.66;5045959;28;20553;-18
2021/11/15 11:32:33;;;;;;;18.05;12.63;;;;;;;20.16;73.43;100189.19;5047137;28;20049;-18
2021/11/15 11:35:03;;;;;;;20.40;13.52;;;;;;;20.16;73.89;100197.13;5049159;28;20133;-19